sensor_id;sensor_type;location;lat;lon;timestamp;P1;durP1;ratioP1;P2;durP2;ratioP2
75649;SDS011;64245;51.282;22.494;2023-04-09T00:02:17;25.02;;;13.23;;
75649;SDS011;64245;51.282;22.494;2023-04-09T00:04:42;28.83;;;12.98;;
75649;SDS011;64245;51.282;22.494;2023-04-09T00:07:08;26.63;;;13.80;;
75649;SDS011;64245;51.282;22.494;2023-04-09T00:09:33;27.63;;;13.30;;
75649;SDS011;64245;51.282;22.494;2023-04-09T00:12:00;28.58;;;13.25;;
75649;SDS011;64245;51.282;22.494;2023-04-09T00:14:26;26.23;;;13.32;;
75649;SDS011;64245;51.282;22.494;2023-04-09T00:16:52;29.58;;;14.20;;
75649;SDS011;64245;51.282;22.494;2023-04-09T00:19:18;25.25;;;13.82;;
75649;SDS011;64245;51.282;22.494;2023-04-09T00:21:44;27.40;;;12.60;;
75649;SDS011;64245;51.282;22.494;2023-04-09T00:24:09;25.90;;;12.82;;
75649;SDS011;64245;51.282;22.494;2023-04-09T00:26:35;22.30;;;11.05;;
75649;SDS011;64245;51.282;22.494;2023-04-09T00:29:01;24.88;;;11.70;;
75649;SDS011;64245;51.282;22.494;2023-04-09T00:31:27;23.33;;;12.30;;
75649;SDS011;64245;51.282;22.494;2023-04-09T00:33:52;24.63;;;11.48;;
75649;SDS011;64245;51.282;22.494;2023-04-09T00:36:18;20.60;;;11.68;;
75649;SDS011;64245;51.282;22.494;2023-04-09T00:38:43;21.33;;;10.77;;
75649;SDS011;64245;51.282;22.494;2023-04-09T00:41:10;19.67;;;11.23;;
75649;SDS011;64245;51.282;22.494;2023-04-09T00:43:36;21.35;;;11.23;;
75649;SDS011;64245;51.282;22.494;2023-04-09T00:46:02;18.88;;;10.00;;
75649;SDS011;64245;51.282;22.494;2023-04-09T00:48:28;21.75;;;9.95;;
75649;SDS011;64245;51.282;22.494;2023-04-09T00:50:54;22.13;;;10.38;;
75649;SDS011;64245;51.282;22.494;2023-04-09T00:53:20;22.55;;;10.68;;
75649;SDS011;64245;51.282;22.494;2023-04-09T00:55:46;21.27;;;11.10;;
75649;SDS011;64245;51.282;22.494;2023-04-09T00:58:11;25.15;;;12.63;;
75649;SDS011;64245;51.282;22.494;2023-04-09T01:00:38;25.08;;;11.95;;
75649;SDS011;64245;51.282;22.494;2023-04-09T01:03:04;24.25;;;11.80;;
75649;SDS011;64245;51.282;22.494;2023-04-09T01:05:33;25.08;;;12.50;;
75649;SDS011;64245;51.282;22.494;2023-04-09T01:11:15;22.45;;;11.68;;
75649;SDS011;64245;51.282;22.494;2023-04-09T01:17:04;23.45;;;12.43;;
75649;SDS011;64245;51.282;22.494;2023-04-09T01:25:03;30.75;;;13.25;;
75649;SDS011;64245;51.282;22.494;2023-04-09T01:30:28;33.42;;;16.00;;
75649;SDS011;64245;51.282;22.494;2023-04-09T01:32:55;27.52;;;14.40;;
75649;SDS011;64245;51.282;22.494;2023-04-09T01:35:22;26.95;;;13.00;;
75649;SDS011;64245;51.282;22.494;2023-04-09T01:37:51;26.30;;;13.13;;
75649;SDS011;64245;51.282;22.494;2023-04-09T01:40:17;31.85;;;14.70;;
75649;SDS011;64245;51.282;22.494;2023-04-09T01:42:43;37.90;;;17.30;;
75649;SDS011;64245;51.282;22.494;2023-04-09T01:45:11;33.30;;;15.60;;
75649;SDS011;64245;51.282;22.494;2023-04-09T01:47:39;28.92;;;14.95;;
75649;SDS011;64245;51.282;22.494;2023-04-09T01:50:05;30.73;;;14.93;;
75649;SDS011;64245;51.282;22.494;2023-04-09T01:52:32;34.05;;;16.20;;
75649;SDS011;64245;51.282;22.494;2023-04-09T01:54:58;33.53;;;16.60;;
75649;SDS011;64245;51.282;22.494;2023-04-09T01:57:23;33.55;;;15.50;;
75649;SDS011;64245;51.282;22.494;2023-04-09T01:59:49;34.40;;;16.95;;
75649;SDS011;64245;51.282;22.494;2023-04-09T02:02:16;35.55;;;17.42;;
75649;SDS011;64245;51.282;22.494;2023-04-09T02:04:46;36.20;;;17.85;;
75649;SDS011;64245;51.282;22.494;2023-04-09T02:07:14;38.53;;;17.85;;
75649;SDS011;64245;51.282;22.494;2023-04-09T02:09:47;35.75;;;17.15;;
75649;SDS011;64245;51.282;22.494;2023-04-09T02:12:15;35.55;;;17.27;;
75649;SDS011;64245;51.282;22.494;2023-04-09T02:14:44;34.20;;;16.48;;
75649;SDS011;64245;51.282;22.494;2023-04-09T02:17:11;32.85;;;16.38;;
75649;SDS011;64245;51.282;22.494;2023-04-09T02:19:41;36.65;;;16.48;;
75649;SDS011;64245;51.282;22.494;2023-04-09T02:22:08;29.58;;;15.02;;
75649;SDS011;64245;51.282;22.494;2023-04-09T02:24:34;33.10;;;15.40;;
75649;SDS011;64245;51.282;22.494;2023-04-09T02:27:01;34.80;;;17.38;;
75649;SDS011;64245;51.282;22.494;2023-04-09T02:29:26;38.65;;;17.70;;
75649;SDS011;64245;51.282;22.494;2023-04-09T02:31:52;32.65;;;16.63;;
75649;SDS011;64245;51.282;22.494;2023-04-09T02:34:18;35.38;;;17.13;;
75649;SDS011;64245;51.282;22.494;2023-04-09T02:36:44;36.33;;;16.70;;
75649;SDS011;64245;51.282;22.494;2023-04-09T02:39:10;36.28;;;17.15;;
75649;SDS011;64245;51.282;22.494;2023-04-09T02:41:36;36.95;;;17.25;;
75649;SDS011;64245;51.282;22.494;2023-04-09T02:44:01;35.03;;;16.77;;
75649;SDS011;64245;51.282;22.494;2023-04-09T02:46:27;33.38;;;16.48;;
75649;SDS011;64245;51.282;22.494;2023-04-09T02:48:52;33.45;;;15.82;;
75649;SDS011;64245;51.282;22.494;2023-04-09T02:51:18;30.48;;;15.70;;
75649;SDS011;64245;51.282;22.494;2023-04-09T02:53:44;33.40;;;15.25;;
75649;SDS011;64245;51.282;22.494;2023-04-09T02:56:10;27.00;;;14.10;;
75649;SDS011;64245;51.282;22.494;2023-04-09T02:58:35;29.33;;;14.10;;
75649;SDS011;64245;51.282;22.494;2023-04-09T03:01:03;31.00;;;14.13;;
75649;SDS011;64245;51.282;22.494;2023-04-09T03:03:28;29.83;;;15.18;;
75649;SDS011;64245;51.282;22.494;2023-04-09T03:05:55;25.25;;;13.35;;
75649;SDS011;64245;51.282;22.494;2023-04-09T03:08:21;28.02;;;14.15;;
75649;SDS011;64245;51.282;22.494;2023-04-09T03:10:47;31.88;;;15.55;;
75649;SDS011;64245;51.282;22.494;2023-04-09T03:13:12;37.72;;;17.15;;
75649;SDS011;64245;51.282;22.494;2023-04-09T03:15:38;39.85;;;18.17;;
75649;SDS011;64245;51.282;22.494;2023-04-09T03:18:04;37.80;;;17.58;;
75649;SDS011;64245;51.282;22.494;2023-04-09T03:20:30;38.33;;;18.42;;
75649;SDS011;64245;51.282;22.494;2023-04-09T03:22:55;38.30;;;16.52;;
75649;SDS011;64245;51.282;22.494;2023-04-09T03:25:21;33.13;;;16.50;;
75649;SDS011;64245;51.282;22.494;2023-04-09T03:27:47;35.90;;;16.92;;
75649;SDS011;64245;51.282;22.494;2023-04-09T03:30:12;31.27;;;15.70;;
75649;SDS011;64245;51.282;22.494;2023-04-09T03:32:38;39.00;;;16.77;;
75649;SDS011;64245;51.282;22.494;2023-04-09T03:35:04;34.45;;;16.48;;
75649;SDS011;64245;51.282;22.494;2023-04-09T03:37:30;34.65;;;16.35;;
75649;SDS011;64245;51.282;22.494;2023-04-09T03:39:55;32.17;;;15.57;;
75649;SDS011;64245;51.282;22.494;2023-04-09T03:42:21;32.50;;;15.88;;
75649;SDS011;64245;51.282;22.494;2023-04-09T03:44:47;36.65;;;17.17;;
75649;SDS011;64245;51.282;22.494;2023-04-09T03:47:12;34.80;;;17.10;;
75649;SDS011;64245;51.282;22.494;2023-04-09T03:49:38;34.08;;;17.00;;
75649;SDS011;64245;51.282;22.494;2023-04-09T03:52:05;37.63;;;17.65;;
75649;SDS011;64245;51.282;22.494;2023-04-09T03:54:31;35.88;;;16.92;;
75649;SDS011;64245;51.282;22.494;2023-04-09T03:56:57;35.95;;;17.85;;
75649;SDS011;64245;51.282;22.494;2023-04-09T03:59:23;32.90;;;16.08;;
75649;SDS011;64245;51.282;22.494;2023-04-09T04:01:48;30.17;;;16.05;;
75649;SDS011;64245;51.282;22.494;2023-04-09T04:04:14;33.83;;;15.80;;
75649;SDS011;64245;51.282;22.494;2023-04-09T04:06:40;33.78;;;16.63;;
75649;SDS011;64245;51.282;22.494;2023-04-09T04:09:06;35.30;;;16.13;;
75649;SDS011;64245;51.282;22.494;2023-04-09T04:11:31;37.92;;;17.50;;
75649;SDS011;64245;51.282;22.494;2023-04-09T04:13:57;38.75;;;17.42;;
75649;SDS011;64245;51.282;22.494;2023-04-09T04:16:22;33.00;;;15.73;;
75649;SDS011;64245;51.282;22.494;2023-04-09T04:18:48;33.17;;;16.38;;
75649;SDS011;64245;51.282;22.494;2023-04-09T04:21:14;29.67;;;13.90;;
75649;SDS011;64245;51.282;22.494;2023-04-09T04:23:41;26.48;;;13.90;;
75649;SDS011;64245;51.282;22.494;2023-04-09T04:26:10;30.58;;;14.88;;
75649;SDS011;64245;51.282;22.494;2023-04-09T04:28:36;28.45;;;14.88;;
75649;SDS011;64245;51.282;22.494;2023-04-09T04:31:06;31.67;;;15.40;;
75649;SDS011;64245;51.282;22.494;2023-04-09T04:33:35;29.77;;;15.13;;
75649;SDS011;64245;51.282;22.494;2023-04-09T04:36:05;31.30;;;15.45;;
75649;SDS011;64245;51.282;22.494;2023-04-09T04:38:33;32.72;;;15.60;;
75649;SDS011;64245;51.282;22.494;2023-04-09T04:40:59;32.60;;;15.88;;
75649;SDS011;64245;51.282;22.494;2023-04-09T04:43:25;37.85;;;16.63;;
75649;SDS011;64245;51.282;22.494;2023-04-09T04:45:51;38.13;;;18.05;;
75649;SDS011;64245;51.282;22.494;2023-04-09T04:48:17;39.33;;;18.75;;
75649;SDS011;64245;51.282;22.494;2023-04-09T04:50:42;41.22;;;17.17;;
75649;SDS011;64245;51.282;22.494;2023-04-09T04:53:08;35.47;;;17.17;;
75649;SDS011;64245;51.282;22.494;2023-04-09T04:55:36;39.50;;;17.77;;
75649;SDS011;64245;51.282;22.494;2023-04-09T04:58:04;42.65;;;17.90;;
75649;SDS011;64245;51.282;22.494;2023-04-09T05:00:30;39.22;;;17.52;;
75649;SDS011;64245;51.282;22.494;2023-04-09T05:02:56;37.45;;;18.38;;
75649;SDS011;64245;51.282;22.494;2023-04-09T05:05:21;36.78;;;17.45;;
75649;SDS011;64245;51.282;22.494;2023-04-09T05:07:47;40.65;;;18.70;;
75649;SDS011;64245;51.282;22.494;2023-04-09T05:10:13;38.25;;;17.58;;
75649;SDS011;64245;51.282;22.494;2023-04-09T05:12:38;35.20;;;20.00;;
75649;SDS011;64245;51.282;22.494;2023-04-09T05:15:04;36.28;;;18.92;;
75649;SDS011;64245;51.282;22.494;2023-04-09T05:17:31;34.83;;;17.70;;
75649;SDS011;64245;51.282;22.494;2023-04-09T05:19:56;34.38;;;18.15;;
75649;SDS011;64245;51.282;22.494;2023-04-09T05:22:22;35.75;;;17.20;;
75649;SDS011;64245;51.282;22.494;2023-04-09T05:24:48;39.80;;;17.95;;
75649;SDS011;64245;51.282;22.494;2023-04-09T05:27:14;35.95;;;18.95;;
75649;SDS011;64245;51.282;22.494;2023-04-09T05:29:39;32.30;;;16.90;;
75649;SDS011;64245;51.282;22.494;2023-04-09T05:32:05;34.53;;;17.63;;
75649;SDS011;64245;51.282;22.494;2023-04-09T05:34:33;31.33;;;16.35;;
75649;SDS011;64245;51.282;22.494;2023-04-09T05:36:59;32.33;;;16.27;;
75649;SDS011;64245;51.282;22.494;2023-04-09T05:39:25;29.55;;;15.35;;
75649;SDS011;64245;51.282;22.494;2023-04-09T05:41:51;32.90;;;15.45;;
75649;SDS011;64245;51.282;22.494;2023-04-09T05:44:17;34.17;;;16.08;;
75649;SDS011;64245;51.282;22.494;2023-04-09T05:46:43;31.38;;;15.73;;
75649;SDS011;64245;51.282;22.494;2023-04-09T05:49:08;29.58;;;16.00;;
75649;SDS011;64245;51.282;22.494;2023-04-09T05:51:34;30.30;;;15.82;;
75649;SDS011;64245;51.282;22.494;2023-04-09T05:54:00;26.50;;;15.05;;
75649;SDS011;64245;51.282;22.494;2023-04-09T05:56:26;30.27;;;13.82;;
75649;SDS011;64245;51.282;22.494;2023-04-09T05:58:52;28.30;;;14.45;;
75649;SDS011;64245;51.282;22.494;2023-04-09T06:01:18;25.48;;;13.50;;
75649;SDS011;64245;51.282;22.494;2023-04-09T06:03:44;23.67;;;13.50;;
75649;SDS011;64245;51.282;22.494;2023-04-09T06:06:10;28.40;;;14.95;;
75649;SDS011;64245;51.282;22.494;2023-04-09T06:08:35;27.90;;;14.52;;
75649;SDS011;64245;51.282;22.494;2023-04-09T06:11:01;30.88;;;14.77;;
75649;SDS011;64245;51.282;22.494;2023-04-09T06:13:27;28.88;;;15.50;;
75649;SDS011;64245;51.282;22.494;2023-04-09T06:15:53;29.05;;;14.07;;
75649;SDS011;64245;51.282;22.494;2023-04-09T06:18:19;21.02;;;11.38;;
75649;SDS011;64245;51.282;22.494;2023-04-09T06:20:45;22.65;;;11.75;;
75649;SDS011;64245;51.282;22.494;2023-04-09T06:23:10;23.63;;;11.60;;
75649;SDS011;64245;51.282;22.494;2023-04-09T06:25:36;21.80;;;11.73;;
75649;SDS011;64245;51.282;22.494;2023-04-09T06:28:02;19.98;;;10.63;;
75649;SDS011;64245;51.282;22.494;2023-04-09T06:30:28;20.40;;;11.10;;
75649;SDS011;64245;51.282;22.494;2023-04-09T06:32:53;19.10;;;10.60;;
75649;SDS011;64245;51.282;22.494;2023-04-09T06:35:19;20.75;;;10.93;;
75649;SDS011;64245;51.282;22.494;2023-04-09T06:37:45;23.25;;;11.85;;
75649;SDS011;64245;51.282;22.494;2023-04-09T06:40:11;19.20;;;12.00;;
75649;SDS011;64245;51.282;22.494;2023-04-09T06:42:36;19.23;;;10.30;;
75649;SDS011;64245;51.282;22.494;2023-04-09T06:45:03;18.27;;;9.60;;
75649;SDS011;64245;51.282;22.494;2023-04-09T06:47:33;22.15;;;10.27;;
75649;SDS011;64245;51.282;22.494;2023-04-09T06:49:59;14.75;;;8.40;;
75649;SDS011;64245;51.282;22.494;2023-04-09T06:52:25;18.08;;;9.32;;
75649;SDS011;64245;51.282;22.494;2023-04-09T06:54:51;16.60;;;9.65;;
75649;SDS011;64245;51.282;22.494;2023-04-09T06:57:16;18.00;;;9.00;;
75649;SDS011;64245;51.282;22.494;2023-04-09T06:59:42;17.10;;;8.93;;
75649;SDS011;64245;51.282;22.494;2023-04-09T07:02:08;17.85;;;9.07;;
75649;SDS011;64245;51.282;22.494;2023-04-09T07:04:34;15.70;;;8.45;;
75649;SDS011;64245;51.282;22.494;2023-04-09T07:07:00;13.40;;;7.43;;
75649;SDS011;64245;51.282;22.494;2023-04-09T07:09:25;13.15;;;7.55;;
75649;SDS011;64245;51.282;22.494;2023-04-09T07:11:51;14.88;;;7.93;;
75649;SDS011;64245;51.282;22.494;2023-04-09T07:14:17;15.00;;;7.57;;
75649;SDS011;64245;51.282;22.494;2023-04-09T07:16:42;13.75;;;7.35;;
75649;SDS011;64245;51.282;22.494;2023-04-09T07:21:36;12.88;;;6.97;;
75649;SDS011;64245;51.282;22.494;2023-04-09T07:24:02;14.82;;;7.93;;
75649;SDS011;64245;51.282;22.494;2023-04-09T07:26:28;17.70;;;8.02;;
75649;SDS011;64245;51.282;22.494;2023-04-09T07:28:54;14.02;;;8.00;;
75649;SDS011;64245;51.282;22.494;2023-04-09T07:31:20;12.75;;;6.32;;
75649;SDS011;64245;51.282;22.494;2023-04-09T07:33:46;12.50;;;7.18;;
75649;SDS011;64245;51.282;22.494;2023-04-09T07:36:12;11.63;;;6.65;;
75649;SDS011;64245;51.282;22.494;2023-04-09T07:38:38;12.65;;;7.05;;
75649;SDS011;64245;51.282;22.494;2023-04-09T07:41:04;13.68;;;6.82;;
75649;SDS011;64245;51.282;22.494;2023-04-09T07:43:30;15.27;;;7.97;;
75649;SDS011;64245;51.282;22.494;2023-04-09T07:45:56;10.75;;;7.22;;
75649;SDS011;64245;51.282;22.494;2023-04-09T07:48:22;10.68;;;7.10;;
75649;SDS011;64245;51.282;22.494;2023-04-09T07:50:47;11.60;;;7.43;;
75649;SDS011;64245;51.282;22.494;2023-04-09T07:53:13;12.38;;;7.13;;
75649;SDS011;64245;51.282;22.494;2023-04-09T07:55:39;10.70;;;7.07;;
75649;SDS011;64245;51.282;22.494;2023-04-09T07:58:05;13.65;;;7.55;;
75649;SDS011;64245;51.282;22.494;2023-04-09T08:00:31;14.73;;;8.15;;
75649;SDS011;64245;51.282;22.494;2023-04-09T08:02:57;13.30;;;8.18;;
75649;SDS011;64245;51.282;22.494;2023-04-09T08:05:23;12.45;;;7.85;;
75649;SDS011;64245;51.282;22.494;2023-04-09T08:07:49;13.73;;;7.03;;
75649;SDS011;64245;51.282;22.494;2023-04-09T08:10:15;11.02;;;6.95;;
75649;SDS011;64245;51.282;22.494;2023-04-09T08:12:41;12.30;;;7.43;;
75649;SDS011;64245;51.282;22.494;2023-04-09T08:15:07;12.55;;;7.40;;
75649;SDS011;64245;51.282;22.494;2023-04-09T08:17:33;10.98;;;6.68;;
75649;SDS011;64245;51.282;22.494;2023-04-09T08:20:02;11.60;;;7.10;;
75649;SDS011;64245;51.282;22.494;2023-04-09T08:22:29;10.27;;;6.20;;
75649;SDS011;64245;51.282;22.494;2023-04-09T08:24:55;10.82;;;6.45;;
75649;SDS011;64245;51.282;22.494;2023-04-09T08:27:22;13.48;;;6.72;;
75649;SDS011;64245;51.282;22.494;2023-04-09T08:29:48;11.73;;;6.32;;
75649;SDS011;64245;51.282;22.494;2023-04-09T08:32:14;10.52;;;6.55;;
75649;SDS011;64245;51.282;22.494;2023-04-09T08:34:39;10.43;;;6.93;;
75649;SDS011;64245;51.282;22.494;2023-04-09T08:37:06;10.75;;;6.47;;
75649;SDS011;64245;51.282;22.494;2023-04-09T08:39:31;11.77;;;7.30;;
75649;SDS011;64245;51.282;22.494;2023-04-09T08:41:57;12.75;;;7.65;;
75649;SDS011;64245;51.282;22.494;2023-04-09T08:44:27;10.35;;;6.80;;
75649;SDS011;64245;51.282;22.494;2023-04-09T08:46:54;11.07;;;7.00;;
75649;SDS011;64245;51.282;22.494;2023-04-09T08:49:19;11.52;;;7.07;;
75649;SDS011;64245;51.282;22.494;2023-04-09T08:51:48;10.73;;;6.60;;
75649;SDS011;64245;51.282;22.494;2023-04-09T08:54:15;10.38;;;7.00;;
75649;SDS011;64245;51.282;22.494;2023-04-09T08:56:42;11.60;;;6.97;;
75649;SDS011;64245;51.282;22.494;2023-04-09T08:59:08;11.02;;;7.22;;
75649;SDS011;64245;51.282;22.494;2023-04-09T09:01:34;11.25;;;7.88;;
75649;SDS011;64245;51.282;22.494;2023-04-09T09:04:06;10.77;;;7.40;;
75649;SDS011;64245;51.282;22.494;2023-04-09T09:06:36;10.98;;;7.32;;
75649;SDS011;64245;51.282;22.494;2023-04-09T09:11:36;11.13;;;7.60;;
75649;SDS011;64245;51.282;22.494;2023-04-09T09:14:07;11.93;;;7.53;;
75649;SDS011;64245;51.282;22.494;2023-04-09T09:16:34;10.80;;;7.03;;
75649;SDS011;64245;51.282;22.494;2023-04-09T09:19:05;12.80;;;7.60;;
75649;SDS011;64245;51.282;22.494;2023-04-09T09:21:31;10.65;;;7.03;;
75649;SDS011;64245;51.282;22.494;2023-04-09T09:23:57;11.27;;;7.10;;
75649;SDS011;64245;51.282;22.494;2023-04-09T09:26:24;12.95;;;7.40;;
75649;SDS011;64245;51.282;22.494;2023-04-09T09:28:54;10.10;;;6.97;;
75649;SDS011;64245;51.282;22.494;2023-04-09T09:31:23;10.10;;;6.57;;
75649;SDS011;64245;51.282;22.494;2023-04-09T09:33:49;9.15;;;6.13;;
75649;SDS011;64245;51.282;22.494;2023-04-09T09:36:29;9.27;;;6.78;;
75649;SDS011;64245;51.282;22.494;2023-04-09T09:38:56;11.60;;;7.15;;
75649;SDS011;64245;51.282;22.494;2023-04-09T09:41:26;9.00;;;6.13;;
75649;SDS011;64245;51.282;22.494;2023-04-09T09:43:52;8.82;;;6.20;;
75649;SDS011;64245;51.282;22.494;2023-04-09T09:46:18;10.52;;;6.93;;
75649;SDS011;64245;51.282;22.494;2023-04-09T09:48:46;9.80;;;6.80;;
75649;SDS011;64245;51.282;22.494;2023-04-09T09:51:12;10.43;;;6.95;;
75649;SDS011;64245;51.282;22.494;2023-04-09T09:53:40;9.55;;;6.82;;
75649;SDS011;64245;51.282;22.494;2023-04-09T09:56:17;9.80;;;6.57;;
75649;SDS011;64245;51.282;22.494;2023-04-09T09:58:47;12.40;;;7.05;;
75649;SDS011;64245;51.282;22.494;2023-04-09T10:01:17;9.38;;;6.05;;
75649;SDS011;64245;51.282;22.494;2023-04-09T10:03:46;9.02;;;6.43;;
75649;SDS011;64245;51.282;22.494;2023-04-09T10:06:14;9.75;;;7.05;;
75649;SDS011;64245;51.282;22.494;2023-04-09T10:08:41;10.75;;;6.10;;
75649;SDS011;64245;51.282;22.494;2023-04-09T10:11:07;9.02;;;6.25;;
75649;SDS011;64245;51.282;22.494;2023-04-09T10:13:38;9.85;;;6.85;;
75649;SDS011;64245;51.282;22.494;2023-04-09T10:16:07;10.02;;;6.47;;
75649;SDS011;64245;51.282;22.494;2023-04-09T10:18:33;9.77;;;5.95;;
75649;SDS011;64245;51.282;22.494;2023-04-09T10:21:02;9.82;;;6.03;;
75649;SDS011;64245;51.282;22.494;2023-04-09T10:23:38;8.45;;;6.00;;
75649;SDS011;64245;51.282;22.494;2023-04-09T10:26:06;8.50;;;5.85;;
75649;SDS011;64245;51.282;22.494;2023-04-09T10:28:32;7.40;;;5.07;;
75649;SDS011;64245;51.282;22.494;2023-04-09T10:30:58;7.00;;;5.20;;
75649;SDS011;64245;51.282;22.494;2023-04-09T10:33:25;8.48;;;4.53;;
75649;SDS011;64245;51.282;22.494;2023-04-09T10:35:58;7.47;;;4.53;;
75649;SDS011;64245;51.282;22.494;2023-04-09T10:38:38;7.45;;;5.15;;
75649;SDS011;64245;51.282;22.494;2023-04-09T10:43:49;7.55;;;5.05;;
75649;SDS011;64245;51.282;22.494;2023-04-09T10:46:25;8.93;;;5.55;;
75649;SDS011;64245;51.282;22.494;2023-04-09T10:49:08;7.10;;;4.95;;
75649;SDS011;64245;51.282;22.494;2023-04-09T10:51:40;6.93;;;4.82;;
75649;SDS011;64245;51.282;22.494;2023-04-09T10:59:53;6.80;;;4.47;;
75649;SDS011;64245;51.282;22.494;2023-04-09T11:04:56;6.03;;;4.10;;
75649;SDS011;64245;51.282;22.494;2023-04-09T11:07:39;6.53;;;4.40;;
75649;SDS011;64245;51.282;22.494;2023-04-09T11:10:08;5.70;;;4.40;;
75649;SDS011;64245;51.282;22.494;2023-04-09T11:12:33;7.40;;;4.35;;
75649;SDS011;64245;51.282;22.494;2023-04-09T11:14:59;7.68;;;5.05;;
75649;SDS011;64245;51.282;22.494;2023-04-09T11:17:25;7.47;;;4.93;;
75649;SDS011;64245;51.282;22.494;2023-04-09T11:19:51;7.90;;;4.97;;
75649;SDS011;64245;51.282;22.494;2023-04-09T11:22:17;9.00;;;5.25;;
75649;SDS011;64245;51.282;22.494;2023-04-09T11:24:43;6.38;;;4.30;;
75649;SDS011;64245;51.282;22.494;2023-04-09T11:27:15;7.40;;;4.50;;
75649;SDS011;64245;51.282;22.494;2023-04-09T11:29:43;7.15;;;4.43;;
75649;SDS011;64245;51.282;22.494;2023-04-09T11:32:09;6.20;;;3.95;;
75649;SDS011;64245;51.282;22.494;2023-04-09T11:34:37;7.53;;;4.57;;
75649;SDS011;64245;51.282;22.494;2023-04-09T11:37:03;6.57;;;4.13;;
75649;SDS011;64245;51.282;22.494;2023-04-09T11:39:36;6.55;;;4.28;;
75649;SDS011;64245;51.282;22.494;2023-04-09T11:42:02;6.72;;;4.25;;
75649;SDS011;64245;51.282;22.494;2023-04-09T11:44:28;5.88;;;4.18;;
75649;SDS011;64245;51.282;22.494;2023-04-09T11:46:55;5.18;;;3.80;;
75649;SDS011;64245;51.282;22.494;2023-04-09T11:49:23;5.97;;;4.13;;
75649;SDS011;64245;51.282;22.494;2023-04-09T11:51:48;5.60;;;3.83;;
75649;SDS011;64245;51.282;22.494;2023-04-09T11:54:15;6.38;;;3.92;;
75649;SDS011;64245;51.282;22.494;2023-04-09T11:56:41;5.28;;;3.33;;
75649;SDS011;64245;51.282;22.494;2023-04-09T11:59:07;4.28;;;3.53;;
75649;SDS011;64245;51.282;22.494;2023-04-09T12:01:32;4.82;;;3.25;;
75649;SDS011;64245;51.282;22.494;2023-04-09T12:03:59;5.50;;;3.20;;
75649;SDS011;64245;51.282;22.494;2023-04-09T12:06:25;4.60;;;3.25;;
75649;SDS011;64245;51.282;22.494;2023-04-09T12:08:52;4.57;;;2.97;;
75649;SDS011;64245;51.282;22.494;2023-04-09T12:11:25;4.53;;;3.28;;
75649;SDS011;64245;51.282;22.494;2023-04-09T12:14:02;3.83;;;2.63;;
75649;SDS011;64245;51.282;22.494;2023-04-09T12:16:31;4.95;;;2.90;;
75649;SDS011;64245;51.282;22.494;2023-04-09T12:19:02;3.10;;;2.45;;
75649;SDS011;64245;51.282;22.494;2023-04-09T12:24:19;3.47;;;2.60;;
75649;SDS011;64245;51.282;22.494;2023-04-09T12:26:47;4.57;;;2.83;;
75649;SDS011;64245;51.282;22.494;2023-04-09T12:29:13;4.45;;;3.08;;
75649;SDS011;64245;51.282;22.494;2023-04-09T12:31:40;3.75;;;2.50;;
75649;SDS011;64245;51.282;22.494;2023-04-09T12:34:07;4.60;;;2.90;;
75649;SDS011;64245;51.282;22.494;2023-04-09T12:36:32;3.80;;;2.60;;
75649;SDS011;64245;51.282;22.494;2023-04-09T12:38:58;4.10;;;2.90;;
75649;SDS011;64245;51.282;22.494;2023-04-09T12:41:24;3.83;;;2.55;;
75649;SDS011;64245;51.282;22.494;2023-04-09T12:43:50;4.07;;;2.50;;
75649;SDS011;64245;51.282;22.494;2023-04-09T12:46:18;3.42;;;2.80;;
75649;SDS011;64245;51.282;22.494;2023-04-09T12:48:45;3.92;;;2.50;;
75649;SDS011;64245;51.282;22.494;2023-04-09T12:51:11;3.45;;;2.40;;
75649;SDS011;64245;51.282;22.494;2023-04-09T12:53:38;3.95;;;2.58;;
75649;SDS011;64245;51.282;22.494;2023-04-09T12:56:04;3.72;;;2.78;;
75649;SDS011;64245;51.282;22.494;2023-04-09T12:58:30;4.72;;;3.15;;
75649;SDS011;64245;51.282;22.494;2023-04-09T13:00:56;4.05;;;3.03;;
75649;SDS011;64245;51.282;22.494;2023-04-09T13:03:22;4.03;;;2.95;;
75649;SDS011;64245;51.282;22.494;2023-04-09T13:05:49;4.20;;;2.75;;
75649;SDS011;64245;51.282;22.494;2023-04-09T13:08:15;5.65;;;3.17;;
75649;SDS011;64245;51.282;22.494;2023-04-09T13:10:40;5.57;;;3.20;;
75649;SDS011;64245;51.282;22.494;2023-04-09T13:13:06;3.80;;;3.00;;
75649;SDS011;64245;51.282;22.494;2023-04-09T13:15:39;5.20;;;3.33;;
75649;SDS011;64245;51.282;22.494;2023-04-09T13:18:12;5.30;;;3.40;;
75649;SDS011;64245;51.282;22.494;2023-04-09T13:20:37;4.80;;;3.08;;
75649;SDS011;64245;51.282;22.494;2023-04-09T13:23:04;4.72;;;3.17;;
75649;SDS011;64245;51.282;22.494;2023-04-09T13:25:30;4.47;;;2.95;;
75649;SDS011;64245;51.282;22.494;2023-04-09T13:27:56;5.65;;;3.60;;
75649;SDS011;64245;51.282;22.494;2023-04-09T13:30:21;6.30;;;3.40;;
75649;SDS011;64245;51.282;22.494;2023-04-09T13:32:47;4.95;;;3.70;;
75649;SDS011;64245;51.282;22.494;2023-04-09T13:35:13;5.10;;;3.20;;
75649;SDS011;64245;51.282;22.494;2023-04-09T13:37:39;4.80;;;3.15;;
75649;SDS011;64245;51.282;22.494;2023-04-09T13:40:05;5.40;;;3.53;;
75649;SDS011;64245;51.282;22.494;2023-04-09T13:42:33;6.82;;;3.40;;
75649;SDS011;64245;51.282;22.494;2023-04-09T13:44:59;5.63;;;3.05;;
75649;SDS011;64245;51.282;22.494;2023-04-09T13:47:25;5.32;;;3.25;;
75649;SDS011;64245;51.282;22.494;2023-04-09T13:49:51;5.68;;;3.30;;
75649;SDS011;64245;51.282;22.494;2023-04-09T13:52:17;4.47;;;2.70;;
75649;SDS011;64245;51.282;22.494;2023-04-09T13:54:43;5.63;;;3.30;;
75649;SDS011;64245;51.282;22.494;2023-04-09T13:57:09;5.70;;;3.38;;
75649;SDS011;64245;51.282;22.494;2023-04-09T13:59:34;4.72;;;3.00;;
75649;SDS011;64245;51.282;22.494;2023-04-09T14:02:00;5.97;;;3.50;;
75649;SDS011;64245;51.282;22.494;2023-04-09T14:04:26;4.40;;;3.38;;
75649;SDS011;64245;51.282;22.494;2023-04-09T14:06:52;4.03;;;3.03;;
75649;SDS011;64245;51.282;22.494;2023-04-09T14:09:17;5.35;;;3.00;;
75649;SDS011;64245;51.282;22.494;2023-04-09T14:11:43;4.72;;;3.50;;
75649;SDS011;64245;51.282;22.494;2023-04-09T14:14:09;4.43;;;3.45;;
75649;SDS011;64245;51.282;22.494;2023-04-09T14:16:35;5.53;;;3.38;;
75649;SDS011;64245;51.282;22.494;2023-04-09T14:19:01;7.00;;;3.72;;
75649;SDS011;64245;51.282;22.494;2023-04-09T14:21:27;5.10;;;3.65;;
75649;SDS011;64245;51.282;22.494;2023-04-09T14:23:53;6.35;;;3.90;;
75649;SDS011;64245;51.282;22.494;2023-04-09T14:26:19;5.97;;;3.60;;
75649;SDS011;64245;51.282;22.494;2023-04-09T14:28:44;7.85;;;4.28;;
75649;SDS011;64245;51.282;22.494;2023-04-09T14:31:11;5.95;;;3.60;;
75649;SDS011;64245;51.282;22.494;2023-04-09T14:33:38;7.82;;;3.78;;
75649;SDS011;64245;51.282;22.494;2023-04-09T14:36:05;4.50;;;3.38;;
75649;SDS011;64245;51.282;22.494;2023-04-09T14:38:34;4.63;;;3.42;;
75649;SDS011;64245;51.282;22.494;2023-04-09T14:41:00;5.82;;;3.50;;
75649;SDS011;64245;51.282;22.494;2023-04-09T14:43:26;5.85;;;3.67;;
75649;SDS011;64245;51.282;22.494;2023-04-09T14:45:52;4.97;;;3.33;;
75649;SDS011;64245;51.282;22.494;2023-04-09T14:48:18;6.40;;;3.53;;
75649;SDS011;64245;51.282;22.494;2023-04-09T14:50:44;6.25;;;3.35;;
75649;SDS011;64245;51.282;22.494;2023-04-09T14:53:10;5.15;;;3.33;;